createdAt,value
2023-04-27T00:00:49.373Z,6.73
2023-04-27T00:03:18.125Z,6.10
2023-04-27T00:05:47.476Z,6.30
2023-04-27T00:08:16.081Z,6.33
2023-04-27T00:10:44.655Z,6.50
2023-04-27T00:13:13.039Z,6.87
2023-04-27T00:15:41.721Z,6.27
2023-04-27T00:18:10.224Z,6.77
2023-04-27T00:20:38.725Z,6.70
2023-04-27T00:23:07.521Z,6.50
2023-04-27T00:26:00.588Z,6.93
2023-04-27T00:28:28.958Z,7.07
2023-04-27T00:30:57.422Z,7.13
2023-04-27T00:33:25.837Z,7.27
2023-04-27T00:39:43.281Z,6.67
2023-04-27T00:42:15.279Z,7.73
2023-04-27T00:44:43.828Z,6.97
2023-04-27T00:47:12.736Z,7.07
2023-04-27T00:49:41.922Z,6.80
2023-04-27T00:52:10.670Z,7.37
2023-04-27T00:54:39.236Z,7.57
2023-04-27T00:57:10.137Z,7.77
2023-04-27T00:59:38.663Z,7.07
2023-04-27T01:02:07.369Z,8.10
2023-04-27T01:04:37.150Z,7.50
2023-04-27T01:07:05.940Z,8.00
2023-04-27T01:09:34.358Z,8.00
2023-04-27T01:12:03.424Z,7.80
2023-04-27T01:14:33.652Z,8.23
2023-04-27T01:17:02.324Z,8.30
2023-04-27T01:19:31.137Z,7.07
2023-04-27T01:21:59.622Z,7.13
2023-04-27T01:24:28.213Z,7.43
2023-04-27T01:26:56.858Z,7.57
2023-04-27T01:29:25.317Z,7.90
2023-04-27T01:31:53.948Z,7.67
2023-04-27T01:34:22.455Z,7.37
2023-04-27T01:36:50.956Z,8.20
2023-04-27T01:39:19.430Z,8.57
2023-04-27T01:41:47.916Z,8.00
2023-04-27T01:44:16.643Z,7.97
2023-04-27T01:46:46.183Z,7.90
2023-04-27T01:49:15.371Z,7.97
2023-04-27T01:51:44.105Z,7.33
2023-04-27T01:54:12.593Z,7.83
2023-04-27T01:56:41.153Z,7.83
2023-04-27T01:59:09.608Z,7.80
2023-04-27T02:01:38.146Z,7.37
2023-04-27T02:04:07.016Z,8.47
2023-04-27T02:06:35.772Z,8.70
2023-04-27T02:09:05.014Z,8.63
2023-04-27T02:11:33.527Z,7.43
2023-04-27T02:14:02.007Z,8.50
2023-04-27T02:16:30.716Z,7.90
2023-04-27T02:18:59.527Z,8.10
2023-04-27T02:21:28.523Z,7.90
2023-04-27T02:23:57.672Z,9.93
2023-04-27T02:26:29.486Z,8.10
2023-04-27T02:28:58.198Z,8.30
2023-04-27T02:31:27.420Z,7.70
2023-04-27T02:33:58.585Z,8.30
2023-04-27T02:36:28.024Z,8.37
2023-04-27T02:38:56.558Z,8.30
2023-04-27T02:41:28.038Z,8.03
2023-04-27T02:43:56.547Z,8.33
2023-04-27T02:46:25.200Z,9.10
2023-04-27T02:48:53.821Z,8.90
2023-04-27T02:51:22.387Z,9.17
2023-04-27T02:53:50.951Z,8.67
2023-04-27T02:56:19.397Z,8.67
2023-04-27T02:58:48.029Z,8.13
2023-04-27T03:01:19.150Z,8.43
2023-04-27T03:03:49.030Z,8.53
2023-04-27T03:06:17.756Z,8.33
2023-04-27T03:08:46.329Z,8.57
2023-04-27T03:11:14.906Z,8.97
2023-04-27T03:13:43.387Z,8.77
2023-04-27T03:16:12.363Z,8.60
2023-04-27T03:18:41.344Z,8.83
2023-04-27T03:21:12.022Z,9.40
2023-04-27T03:23:40.979Z,8.63
2023-04-27T03:26:15.318Z,8.70
2023-04-27T03:28:43.959Z,9.03
2023-04-27T03:31:15.177Z,7.93
2023-04-27T03:33:44.041Z,8.80
2023-04-27T03:36:12.558Z,8.10
2023-04-27T03:38:41.060Z,8.80
2023-04-27T03:41:09.542Z,9.23
2023-04-27T03:43:38.146Z,9.20
2023-04-27T03:46:06.691Z,9.40
2023-04-27T03:48:35.276Z,8.33
2023-04-27T03:51:03.722Z,8.40
2023-04-27T03:53:32.326Z,8.63
2023-04-27T03:56:02.045Z,9.20
2023-04-27T03:58:30.835Z,8.53
2023-04-27T04:00:59.360Z,8.33
2023-04-27T04:03:28.141Z,8.37
2023-04-27T04:05:56.924Z,9.20
2023-04-27T04:08:26.033Z,8.47
2023-04-27T04:10:54.495Z,8.53
2023-04-27T04:13:23.172Z,8.33
2023-04-27T04:15:51.804Z,8.37
2023-04-27T04:18:20.638Z,8.80
2023-04-27T04:20:49.158Z,8.47
2023-04-27T04:23:17.657Z,9.23
2023-04-27T04:25:48.223Z,7.90
2023-04-27T04:28:16.784Z,8.40
2023-04-27T04:30:45.641Z,8.37
2023-04-27T04:33:14.131Z,8.67
2023-04-27T04:35:42.972Z,8.73
2023-04-27T04:38:12.150Z,8.03
2023-04-27T04:40:42.315Z,8.87
2023-04-27T04:43:12.342Z,8.47
2023-04-27T04:45:40.782Z,8.10
2023-04-27T04:48:09.309Z,8.13
2023-04-27T04:50:37.780Z,8.17
2023-04-27T04:53:06.627Z,7.83
2023-04-27T04:55:35.494Z,7.77
2023-04-27T04:58:04.030Z,7.27
2023-04-27T05:00:32.498Z,8.40
2023-04-27T05:03:01.243Z,8.60
2023-04-27T05:05:29.920Z,7.73
2023-04-27T05:07:58.422Z,8.20
2023-04-27T05:10:26.857Z,7.77
2023-04-27T05:12:55.621Z,7.90
2023-04-27T05:15:24.114Z,8.33
2023-04-27T05:17:54.263Z,7.40
2023-04-27T05:20:22.818Z,7.67
2023-04-27T05:22:51.320Z,7.80
2023-04-27T05:25:19.874Z,7.33
2023-04-27T05:27:49.041Z,7.43
2023-04-27T05:30:17.524Z,7.90
2023-04-27T05:32:46.085Z,8.27
2023-04-27T05:35:14.642Z,7.70
2023-04-27T05:37:43.142Z,8.10
2023-04-27T05:40:12.514Z,8.10
2023-04-27T05:42:41.105Z,8.37
2023-04-27T05:45:10.127Z,7.47
2023-04-27T05:47:38.726Z,7.23
2023-04-27T05:50:07.755Z,7.93
2023-04-27T05:52:37.614Z,7.70
2023-04-27T05:55:07.903Z,7.80
2023-04-27T05:57:36.407Z,7.57
2023-04-27T06:00:10.775Z,7.10
2023-04-27T06:02:39.461Z,7.90
2023-04-27T06:05:08.623Z,8.00
2023-04-27T06:07:37.569Z,6.60
2023-04-27T06:10:06.910Z,7.17
2023-04-27T06:12:35.394Z,7.67
2023-04-27T06:15:08.496Z,6.70
2023-04-27T06:17:40.909Z,6.40
2023-04-27T06:20:10.416Z,6.67
2023-04-27T06:22:39.040Z,6.93
2023-04-27T06:25:08.098Z,7.30
2023-04-27T06:27:37.067Z,7.70
2023-04-27T06:30:06.417Z,7.57
2023-04-27T06:32:34.945Z,7.33
2023-04-27T06:35:03.511Z,6.90
2023-04-27T06:37:32.803Z,6.80
2023-04-27T06:40:01.349Z,7.07
2023-04-27T06:42:29.841Z,6.67
2023-04-27T06:44:58.551Z,6.27
2023-04-27T06:47:26.797Z,6.30
2023-04-27T06:49:55.432Z,6.40
2023-04-27T06:52:23.753Z,6.43
2023-04-27T06:54:52.483Z,6.23
2023-04-27T06:57:21.171Z,6.30
2023-04-27T06:59:49.502Z,6.00
2023-04-27T07:02:18.004Z,6.00
2023-04-27T07:04:46.241Z,5.73
2023-04-27T07:07:14.841Z,5.83
2023-04-27T07:09:42.917Z,5.70
2023-04-27T07:12:11.314Z,5.07
2023-04-27T07:14:39.802Z,4.40
2023-04-27T07:17:08.057Z,4.70
2023-04-27T07:19:36.169Z,5.57
2023-04-27T07:22:04.741Z,4.57
2023-04-27T07:24:33.300Z,5.20
2023-04-27T07:27:03.647Z,5.20
2023-04-27T07:29:32.398Z,5.00
2023-04-27T07:32:00.934Z,5.07
2023-04-27T07:34:41.124Z,4.60
2023-04-27T07:37:14.100Z,5.33
2023-04-27T07:39:42.452Z,4.80
2023-04-27T07:42:10.982Z,5.30
2023-04-27T07:44:39.065Z,5.40
2023-04-27T07:47:07.173Z,5.93
2023-04-27T07:49:36.113Z,5.50
2023-04-27T07:52:05.389Z,5.60
2023-04-27T07:54:33.521Z,5.33
2023-04-27T07:57:02.268Z,5.23
2023-04-27T07:59:31.087Z,5.70
2023-04-27T08:02:17.034Z,5.77
2023-04-27T08:04:48.198Z,5.60
2023-04-27T08:07:18.432Z,5.07
2023-04-27T08:09:47.653Z,5.80
2023-04-27T08:12:16.267Z,5.27
2023-04-27T08:14:44.760Z,6.23
2023-04-27T08:17:13.402Z,5.20
2023-04-27T08:19:42.694Z,6.50
2023-04-27T08:22:11.380Z,5.80
2023-04-27T08:24:39.883Z,6.00
2023-04-27T08:27:08.432Z,5.33
2023-04-27T08:29:37.057Z,6.13
2023-04-27T08:32:06.624Z,4.80
2023-04-27T08:34:34.819Z,5.17
2023-04-27T08:37:04.468Z,5.30
2023-04-27T08:39:32.765Z,4.27
2023-04-27T08:42:01.470Z,5.60
2023-04-27T08:44:31.033Z,5.50
2023-04-27T08:46:59.598Z,6.03
2023-04-27T08:49:27.734Z,5.70
2023-04-27T08:51:56.116Z,5.77
2023-04-27T08:54:24.345Z,5.60
2023-04-27T08:56:52.865Z,9.00
2023-04-27T08:59:21.072Z,6.50
2023-04-27T09:01:51.191Z,5.83
2023-04-27T09:04:20.293Z,5.43
2023-04-27T09:06:49.788Z,5.17
2023-04-27T09:09:25.616Z,4.70
2023-04-27T09:11:53.787Z,5.80
2023-04-27T09:14:24.968Z,5.23
2023-04-27T09:17:00.599Z,5.60
2023-04-27T09:19:30.528Z,6.27
2023-04-27T09:22:15.841Z,5.67
2023-04-27T09:24:54.586Z,5.73
2023-04-27T09:27:23.564Z,5.50
2023-04-27T09:29:52.597Z,7.40
2023-04-27T09:32:21.546Z,6.03
2023-04-27T09:34:50.141Z,5.80
2023-04-27T09:37:18.659Z,5.70
2023-04-27T09:39:48.281Z,5.00
2023-04-27T09:42:16.743Z,5.17
2023-04-27T09:44:45.360Z,5.50
2023-04-27T09:47:15.561Z,6.83
2023-04-27T09:49:44.129Z,6.40
2023-04-27T09:52:12.360Z,6.50
2023-04-27T09:54:42.257Z,6.10
2023-04-27T09:57:38.035Z,5.80
2023-04-27T10:00:43.885Z,5.73
2023-04-27T10:03:41.849Z,4.90
2023-04-27T10:06:40.489Z,5.70
2023-04-27T10:09:09.295Z,6.07
2023-04-27T10:11:45.523Z,5.43
2023-04-27T10:14:25.217Z,6.37
2023-04-27T10:16:59.055Z,5.30
2023-04-27T10:19:27.971Z,5.60
2023-04-27T10:22:03.598Z,6.47
2023-04-27T10:24:44.488Z,6.90
2023-04-27T10:27:14.171Z,9.30
2023-04-27T10:29:43.711Z,8.67
2023-04-27T10:32:26.101Z,6.73
2023-04-27T10:35:07.474Z,6.30
2023-04-27T10:37:45.630Z,5.30
2023-04-27T10:40:17.533Z,5.43
2023-04-27T10:42:49.734Z,6.40
2023-04-27T10:45:31.611Z,6.33
2023-04-27T10:48:02.462Z,5.20
2023-04-27T10:50:31.988Z,5.67
2023-04-27T10:53:07.309Z,5.83
2023-04-27T10:55:36.749Z,6.37
2023-04-27T10:58:05.301Z,6.20
2023-04-27T11:00:44.474Z,5.97
2023-04-27T11:03:25.288Z,6.00
2023-04-27T11:06:06.231Z,5.17
2023-04-27T11:08:36.884Z,4.60
2023-04-27T11:11:06.219Z,5.03
2023-04-27T11:13:34.962Z,4.57
2023-04-27T11:16:05.722Z,4.90
2023-04-27T11:18:34.686Z,4.87
2023-04-27T11:21:28.526Z,6.07
2023-04-27T11:23:58.042Z,5.90
2023-04-27T11:26:26.849Z,5.70
2023-04-27T11:29:09.312Z,6.33
2023-04-27T11:31:49.332Z,5.13
2023-04-27T11:34:26.500Z,6.30
2023-04-27T11:37:17.425Z,5.83
2023-04-27T11:39:47.202Z,5.10
2023-04-27T11:42:30.967Z,4.63
2023-04-27T11:45:06.602Z,4.70
2023-04-27T11:47:36.115Z,4.63
2023-04-27T11:50:08.561Z,4.70
2023-04-27T11:52:40.269Z,4.47
2023-04-27T11:55:16.461Z,5.93
2023-04-27T11:57:46.523Z,5.50
2023-04-27T12:00:16.569Z,5.77
2023-04-27T12:02:45.648Z,5.13
2023-04-27T12:05:18.101Z,5.23
2023-04-27T12:07:46.749Z,5.67
2023-04-27T12:10:14.963Z,5.33
2023-04-27T12:12:43.638Z,5.97
2023-04-27T12:15:12.565Z,5.63
2023-04-27T12:17:41.572Z,6.40
2023-04-27T12:20:10.725Z,4.60
2023-04-27T12:22:39.286Z,5.33
2023-04-27T12:25:08.334Z,4.73
2023-04-27T12:27:37.327Z,4.50
2023-04-27T12:30:06.353Z,4.80
2023-04-27T12:32:34.724Z,4.60
2023-04-27T12:35:03.313Z,6.13
2023-04-27T12:37:32.076Z,9.43
2023-04-27T12:40:00.521Z,7.00
2023-04-27T12:42:29.211Z,5.60
2023-04-27T12:44:57.757Z,5.83
2023-04-27T12:47:49.854Z,5.23
2023-04-27T12:50:15.966Z,4.20
2023-04-27T12:52:48.037Z,4.90
2023-04-27T12:55:31.355Z,4.27
2023-04-27T12:58:00.975Z,5.07
2023-04-27T13:00:29.763Z,4.60
2023-04-27T13:02:58.468Z,5.07
2023-04-27T13:05:29.749Z,5.10
2023-04-27T13:07:59.787Z,4.90
2023-04-27T13:10:28.911Z,6.27
2023-04-27T13:12:57.947Z,4.77
2023-04-27T13:15:26.403Z,5.53
2023-04-27T13:17:56.357Z,5.07
2023-04-27T13:20:24.969Z,4.83
2023-04-27T13:22:53.793Z,4.60
2023-04-27T13:25:21.997Z,4.57
2023-04-27T13:27:51.601Z,5.37
2023-04-27T13:30:20.274Z,4.50
2023-04-27T13:32:51.817Z,4.13
2023-04-27T13:35:21.009Z,4.37
2023-04-27T13:37:49.535Z,4.33
2023-04-27T13:40:18.122Z,5.10
2023-04-27T13:42:46.579Z,4.30
2023-04-27T13:45:15.465Z,4.67
2023-04-27T13:47:44.253Z,5.13
2023-04-27T13:50:13.118Z,5.33
2023-04-27T13:52:42.104Z,4.50
2023-04-27T13:55:12.787Z,5.47
2023-04-27T13:57:41.411Z,4.97
2023-04-27T14:00:11.587Z,5.27
2023-04-27T14:02:40.563Z,4.80
2023-04-27T14:05:09.505Z,4.53
2023-04-27T14:07:38.100Z,4.17
2023-04-27T14:10:06.966Z,4.17
2023-04-27T14:12:35.921Z,5.37
2023-04-27T14:15:04.615Z,4.30
2023-04-27T14:17:33.143Z,4.57
2023-04-27T14:20:01.720Z,4.40
2023-04-27T14:22:30.523Z,5.03
2023-04-27T14:24:58.607Z,4.47
2023-04-27T14:27:28.209Z,4.50
2023-04-27T14:29:56.658Z,5.23
2023-04-27T14:32:25.163Z,4.10
2023-04-27T14:34:53.894Z,4.80
2023-04-27T14:37:22.284Z,4.20
2023-04-27T14:39:50.883Z,4.50
2023-04-27T14:42:18.965Z,4.63
2023-04-27T14:44:49.676Z,4.57
2023-04-27T14:47:18.719Z,4.07
2023-04-27T14:49:47.796Z,5.10
2023-04-27T14:52:16.247Z,5.30
2023-04-27T14:54:45.074Z,5.33
2023-04-27T14:57:13.162Z,4.83
2023-04-27T14:59:41.657Z,5.33
2023-04-27T15:02:09.783Z,4.60
2023-04-27T15:04:39.684Z,4.23
2023-04-27T15:07:09.740Z,4.93
2023-04-27T15:09:37.867Z,4.50
2023-04-27T15:12:08.104Z,4.97
2023-04-27T15:14:36.590Z,4.50
2023-04-27T15:17:05.137Z,4.97
2023-04-27T15:19:33.597Z,5.00
2023-04-27T15:22:01.832Z,4.67
2023-04-27T15:24:30.159Z,4.40
2023-04-27T15:26:58.644Z,5.30
2023-04-27T15:29:27.258Z,4.80
2023-04-27T15:31:55.848Z,4.27
2023-04-27T15:34:24.326Z,4.47
2023-04-27T15:36:52.423Z,4.70
2023-04-27T15:39:20.908Z,4.43
2023-04-27T15:41:49.362Z,5.37
2023-04-27T15:44:17.864Z,5.00
2023-04-27T15:46:46.978Z,4.60
2023-04-27T15:49:15.623Z,5.30
2023-04-27T15:51:44.390Z,4.80
2023-04-27T15:54:12.852Z,4.53
2023-04-27T15:56:41.135Z,4.73
2023-04-27T15:59:09.649Z,4.80
2023-04-27T16:01:38.281Z,4.00
2023-04-27T16:04:06.892Z,5.23
2023-04-27T16:06:37.078Z,4.83
2023-04-27T16:09:10.442Z,6.87
2023-04-27T16:11:39.299Z,5.00
2023-04-27T16:14:07.960Z,4.27
2023-04-27T16:16:36.694Z,4.40
2023-04-27T16:19:05.698Z,5.20
2023-04-27T16:21:34.483Z,4.57
2023-04-27T16:24:04.853Z,4.97
2023-04-27T16:26:32.948Z,4.70
2023-04-27T16:29:01.440Z,5.00
2023-04-27T16:31:30.405Z,5.30
2023-04-27T16:33:59.254Z,4.40
2023-04-27T16:36:28.366Z,4.50
2023-04-27T16:38:57.028Z,4.03
2023-04-27T16:41:25.794Z,5.50
2023-04-27T16:43:54.267Z,5.30
2023-04-27T16:46:22.910Z,4.53
2023-04-27T16:48:51.459Z,5.57
2023-04-27T16:51:19.934Z,4.83
2023-04-27T16:53:49.325Z,4.63
2023-04-27T16:56:25.915Z,5.10
2023-04-27T16:58:54.570Z,4.80
2023-04-27T17:01:26.117Z,5.83
2023-04-27T17:03:55.475Z,6.43
2023-04-27T17:06:41.822Z,6.73
2023-04-27T17:09:14.180Z,5.67
2023-04-27T17:11:43.068Z,5.40
2023-04-27T17:14:12.202Z,5.00
2023-04-27T17:16:40.511Z,5.03
2023-04-27T17:19:08.961Z,5.00
2023-04-27T17:21:37.407Z,4.87
2023-04-27T17:24:06.391Z,5.03
2023-04-27T17:26:35.139Z,5.07
2023-04-27T17:29:03.971Z,5.07
2023-04-27T17:31:32.450Z,5.13
2023-04-27T17:34:01.540Z,4.97
2023-04-27T17:36:30.071Z,5.10
2023-04-27T17:38:58.653Z,10.03
2023-04-27T17:41:27.135Z,4.47
2023-04-27T17:43:55.376Z,5.07
2023-04-27T17:46:24.053Z,6.10
2023-04-27T17:49:00.635Z,5.10
2023-04-27T17:51:29.109Z,6.03
2023-04-27T17:53:58.211Z,4.53
2023-04-27T17:56:26.793Z,5.30
2023-04-27T17:58:55.411Z,4.60
2023-04-27T18:01:23.682Z,4.33
2023-04-27T18:03:53.056Z,4.53
2023-04-27T18:06:22.070Z,4.60
2023-04-27T18:08:51.307Z,5.30
2023-04-27T18:11:19.889Z,4.97
2023-04-27T18:13:48.371Z,5.30
2023-04-27T18:16:19.752Z,5.13
2023-04-27T18:18:48.489Z,5.30
2023-04-27T18:21:17.155Z,5.00
2023-04-27T18:23:46.064Z,4.97
2023-04-27T18:26:15.398Z,4.90
2023-04-27T18:28:43.868Z,4.50
2023-04-27T18:31:20.392Z,5.77
2023-04-27T18:33:49.229Z,4.83
2023-04-27T18:36:17.798Z,4.83
2023-04-27T18:38:48.208Z,5.27
2023-04-27T18:41:17.047Z,4.80
2023-04-27T18:43:45.951Z,4.50
2023-04-27T18:46:14.242Z,4.27
2023-04-27T18:48:42.779Z,4.63
2023-04-27T18:51:11.223Z,4.40
2023-04-27T18:53:39.525Z,5.00
2023-04-27T18:56:09.498Z,5.03
2023-04-27T18:58:38.190Z,4.80
2023-04-27T19:01:18.778Z,5.30
2023-04-27T19:04:03.508Z,5.00
2023-04-27T19:06:32.831Z,5.43
2023-04-27T19:09:02.077Z,5.50
2023-04-27T19:11:31.330Z,5.77
2023-04-27T19:13:59.530Z,5.97
2023-04-27T19:16:28.177Z,6.40
2023-04-27T19:18:56.817Z,7.17
2023-04-27T19:21:26.106Z,6.43
2023-04-27T19:23:54.762Z,6.40
2023-04-27T19:26:23.284Z,5.77
2023-04-27T19:28:51.794Z,6.27
2023-04-27T19:31:20.400Z,5.67
2023-04-27T19:34:04.139Z,5.63
2023-04-27T19:36:33.104Z,6.00
2023-04-27T19:39:01.566Z,5.97
2023-04-27T19:41:29.987Z,6.40
2023-04-27T19:43:58.577Z,6.03
2023-04-27T19:46:29.511Z,6.93
2023-04-27T19:48:58.061Z,6.10
2023-04-27T19:51:33.541Z,5.70
2023-04-27T19:54:12.106Z,6.77
2023-04-27T19:56:41.401Z,5.57
2023-04-27T19:59:09.933Z,5.77
2023-04-27T20:01:42.424Z,5.60
2023-04-27T20:04:11.213Z,5.33
2023-04-27T20:06:40.879Z,5.63
2023-04-27T20:09:09.128Z,6.43
2023-04-27T20:11:37.679Z,8.37
2023-04-27T20:14:10.153Z,7.73
2023-04-27T20:16:38.750Z,6.53
2023-04-27T20:19:07.453Z,5.40
2023-04-27T20:21:35.709Z,5.03
2023-04-27T20:24:05.390Z,4.80
2023-04-27T20:26:34.561Z,5.27
2023-04-27T20:29:03.093Z,9.07
2023-04-27T20:31:43.640Z,11.67
2023-04-27T20:34:24.450Z,10.80
2023-04-27T20:37:04.349Z,17.40
2023-04-27T20:39:32.973Z,9.77
2023-04-27T20:42:01.564Z,9.43
2023-04-27T20:44:30.134Z,10.17
2023-04-27T20:46:58.876Z,8.03
2023-04-27T20:49:34.452Z,6.90
2023-04-27T20:52:04.593Z,5.60
2023-04-27T20:54:33.122Z,5.53
2023-04-27T20:57:02.223Z,5.00
2023-04-27T20:59:30.574Z,5.07
2023-04-27T21:01:59.021Z,3.90
2023-04-27T21:04:44.719Z,4.07
2023-04-27T21:07:15.301Z,4.40
2023-04-27T21:09:43.957Z,4.10
2023-04-27T21:12:14.670Z,4.50
2023-04-27T21:14:42.747Z,4.70
2023-04-27T21:17:11.528Z,4.40
2023-04-27T21:19:39.611Z,4.40
2023-04-27T21:22:08.392Z,4.73
2023-04-27T21:24:37.017Z,3.70
2023-04-27T21:27:05.208Z,4.27
2023-04-27T21:29:35.339Z,4.20
2023-04-27T21:32:04.434Z,4.20
2023-04-27T21:34:33.008Z,4.57
2023-04-27T21:37:01.516Z,4.47
2023-04-27T21:39:29.989Z,4.50
2023-04-27T21:41:58.585Z,4.20
2023-04-27T21:44:27.136Z,3.83
2023-04-27T21:46:55.622Z,5.17
2023-04-27T21:49:24.174Z,4.60
2023-04-27T21:51:52.635Z,4.27
2023-04-27T21:54:20.905Z,4.10
2023-04-27T21:56:49.368Z,4.53
2023-04-27T21:59:17.837Z,4.87
2023-04-27T22:01:46.366Z,4.33
2023-04-27T22:04:25.262Z,4.20
2023-04-27T22:06:54.009Z,4.30
2023-04-27T22:09:22.452Z,4.27
2023-04-27T22:11:51.400Z,5.13
2023-04-27T22:14:19.949Z,4.17
2023-04-27T22:16:48.984Z,4.60
2023-04-27T22:19:17.953Z,4.80
2023-04-27T22:21:46.524Z,4.43
2023-04-27T22:24:15.333Z,4.07
2023-04-27T22:26:49.170Z,4.03
2023-04-27T22:29:17.813Z,3.90
2023-04-27T22:31:48.145Z,4.50
2023-04-27T22:34:17.061Z,4.07
2023-04-27T22:36:45.801Z,3.90
2023-04-27T22:39:14.389Z,4.00
2023-04-27T22:41:42.897Z,3.47
2023-04-27T22:44:11.523Z,4.60
2023-04-27T22:46:39.982Z,3.60
2023-04-27T22:49:08.623Z,4.07
2023-04-27T22:51:38.729Z,4.10
2023-04-27T22:54:07.461Z,4.27
2023-04-27T22:56:36.109Z,4.57
2023-04-27T22:59:04.640Z,4.00
2023-04-27T23:01:33.125Z,4.07
2023-04-27T23:04:02.130Z,4.30
2023-04-27T23:06:30.742Z,4.03
2023-04-27T23:08:59.289Z,4.53
2023-04-27T23:11:28.912Z,4.70
2023-04-27T23:13:57.531Z,4.27
2023-04-27T23:16:35.737Z,4.50
2023-04-27T23:19:04.209Z,4.23
2023-04-27T23:21:32.702Z,4.50
2023-04-27T23:24:01.114Z,4.43
2023-04-27T23:26:32.179Z,4.40
2023-04-27T23:29:00.371Z,4.67
2023-04-27T23:31:29.506Z,4.60
2023-04-27T23:33:58.256Z,5.03
2023-04-27T23:36:32.584Z,4.80
2023-04-27T23:39:00.707Z,5.13
2023-04-27T23:41:29.245Z,4.63
2023-04-27T23:43:57.698Z,5.23
2023-04-27T23:46:26.012Z,4.63
2023-04-27T23:49:01.997Z,5.40
2023-04-27T23:51:30.974Z,5.07
2023-04-27T23:53:59.388Z,5.13
2023-04-27T23:56:27.879Z,5.67
2023-04-27T23:58:56.120Z,5.20
